B3355 VHHH-ZBAA
Flight info
| Callsign | B3355 |
|---|---|
| Flight time | N/A |
| Altitude | 35100 |
| Route | BEKOL A461 BUBDA W56 DUGEB |
| Aircraft | CL60/M-SBDE1E2E3FGHIJ1J4J5J7M3RWXYZ/LB1V1D1 |
Departure
| Time | 2026-05-07 12:22 |
|---|---|
| Airport | Hong Kong International Airport (VHHH) |
Arrival
| Time | N/A |
|---|---|
| Airport | Beijing Capital International Airport (ZBAA) |
| Time | Latitude | Longitude | Altitude | Speed | Heading |
|---|---|---|---|---|---|
| 2026-05-07 12:02 | 22.29663 | 113.91085 | 35 ft | 0 kts | 58° |
| 2026-05-07 12:18 | 22.29664 | 113.91087 | 35 ft | 2 kts | 58° |
| 2026-05-07 12:18 | 22.29700 | 113.91098 | 35 ft | 9 kts | 341° |
| 2026-05-07 12:19 | 22.29766 | 113.91050 | 35 ft | 12 kts | 337° |
| 2026-05-07 12:19 | 22.29818 | 113.90987 | 35 ft | 13 kts | 268° |
| 2026-05-07 12:19 | 22.29789 | 113.90884 | 35 ft | 15 kts | 250° |
| 2026-05-07 12:19 | 22.29750 | 113.90765 | 35 ft | 17 kts | 250° |
| 2026-05-07 12:20 | 22.29706 | 113.90630 | 35 ft | 20 kts | 251° |
| 2026-05-07 12:20 | 22.29669 | 113.90505 | 35 ft | 12 kts | 272° |
| 2026-05-07 12:20 | 22.29748 | 113.90496 | 35 ft | 14 kts | 34° |
| 2026-05-07 12:20 | 22.29829 | 113.90575 | 35 ft | 16 kts | 49° |
| 2026-05-07 12:21 | 22.29904 | 113.90681 | 35 ft | 18 kts | 69° |
| 2026-05-07 12:21 | 22.29946 | 113.90813 | 35 ft | 48 kts | 71° |
| 2026-05-07 12:21 | 22.30164 | 113.91478 | 39 ft | 136 kts | 71° |
| 2026-05-07 12:21 | 22.30538 | 113.92619 | 321 ft | 181 kts | 71° |
| 2026-05-07 12:22 | 22.30967 | 113.93938 | 1033 ft | 196 kts | 73° |
| 2026-05-07 12:22 | 22.31408 | 113.95332 | 1927 ft | 204 kts | 73° |
| 2026-05-07 12:22 | 22.31881 | 113.96822 | 2885 ft | 217 kts | 73° |
| 2026-05-07 12:22 | 22.32363 | 113.98340 | 3917 ft | 223 kts | 73° |
| 2026-05-07 12:23 | 22.32869 | 113.99922 | 4919 ft | 230 kts | 72° |
| 2026-05-07 12:23 | 22.33398 | 114.01570 | 5913 ft | 238 kts | 72° |
| 2026-05-07 12:23 | 22.33800 | 114.03291 | 6898 ft | 243 kts | 87° |
| 2026-05-07 12:23 | 22.33636 | 114.05119 | 7639 ft | 252 kts | 109° |
| 2026-05-07 12:24 | 22.32816 | 114.06776 | 7959 ft | 252 kts | 133° |
| 2026-05-07 12:24 | 22.31437 | 114.07960 | 8080 ft | 267 kts | 154° |
| 2026-05-07 12:24 | 22.29636 | 114.08633 | 8914 ft | 275 kts | 174° |
| 2026-05-07 12:24 | 22.27755 | 114.08716 | 9905 ft | 276 kts | 184° |
| 2026-05-07 12:25 | 22.25758 | 114.08681 | 10265 ft | 306 kts | 184° |
| 2026-05-07 12:25 | 22.23506 | 114.08652 | 10414 ft | 340 kts | 182° |
| 2026-05-07 12:25 | 22.21078 | 114.08991 | 10984 ft | 360 kts | 166° |
| 2026-05-07 12:25 | 22.18788 | 114.10149 | 11731 ft | 372 kts | 147° |
| 2026-05-07 12:26 | 22.16927 | 114.12099 | 12506 ft | 381 kts | 127° |
| 2026-05-07 12:26 | 22.15803 | 114.14682 | 13236 ft | 388 kts | 103° |
| 2026-05-07 12:26 | 22.15680 | 114.17587 | 13973 ft | 392 kts | 81° |
| 2026-05-07 12:26 | 22.16555 | 114.20335 | 14718 ft | 392 kts | 58° |
| 2026-05-07 12:27 | 22.18308 | 114.22567 | 15405 ft | 391 kts | 37° |
| 2026-05-07 12:27 | 22.20701 | 114.24004 | 15812 ft | 394 kts | 16° |
| 2026-05-07 12:27 | 22.23360 | 114.24446 | 15946 ft | 390 kts | 355° |
| 2026-05-07 12:27 | 22.26037 | 114.24050 | 15942 ft | 387 kts | 347° |
| 2026-05-07 12:28 | 22.28683 | 114.23495 | 15953 ft | 384 kts | 346° |
| 2026-05-07 12:28 | 22.31300 | 114.22941 | 15951 ft | 384 kts | 346° |
| 2026-05-07 12:28 | 22.33980 | 114.22311 | 16223 ft | 395 kts | 341° |
| 2026-05-07 12:28 | 22.36508 | 114.21259 | 16983 ft | 393 kts | 335° |
| 2026-05-07 12:29 | 22.39060 | 114.20121 | 17765 ft | 393 kts | 335° |
| 2026-05-07 12:29 | 22.41589 | 114.19000 | 18458 ft | 394 kts | 336° |
| 2026-05-07 12:29 | 22.44124 | 114.17876 | 19091 ft | 397 kts | 335° |
| 2026-05-07 12:29 | 22.46715 | 114.16727 | 19711 ft | 400 kts | 335° |
| 2026-05-07 12:30 | 22.49275 | 114.15593 | 20299 ft | 404 kts | 335° |
| 2026-05-07 12:30 | 22.51878 | 114.14439 | 20873 ft | 407 kts | 335° |
| 2026-05-07 12:30 | 22.54533 | 114.13227 | 21440 ft | 409 kts | 333° |
| 2026-05-07 12:30 | 22.57113 | 114.11913 | 21953 ft | 413 kts | 332° |
| 2026-05-07 12:31 | 22.59735 | 114.10565 | 22483 ft | 416 kts | 332° |
| 2026-05-07 12:31 | 22.62331 | 114.09232 | 22995 ft | 419 kts | 332° |
| 2026-05-07 12:31 | 22.64985 | 114.07868 | 23514 ft | 422 kts | 332° |
| 2026-05-07 12:31 | 22.67640 | 114.06503 | 23996 ft | 425 kts | 332° |
| 2026-05-07 12:32 | 22.70329 | 114.05120 | 24479 ft | 428 kts | 332° |
| 2026-05-07 12:32 | 22.73030 | 114.03730 | 24951 ft | 431 kts | 332° |
| 2026-05-07 12:32 | 22.75739 | 114.02335 | 25409 ft | 433 kts | 332° |
| 2026-05-07 12:32 | 22.78465 | 114.00932 | 25848 ft | 436 kts | 332° |
| 2026-05-07 12:33 | 22.84007 | 113.98075 | 26681 ft | 441 kts | 332° |
| 2026-05-07 12:33 | 22.86824 | 113.96622 | 27091 ft | 444 kts | 332° |
| 2026-05-07 12:33 | 22.89664 | 113.95158 | 27463 ft | 447 kts | 332° |
| 2026-05-07 12:34 | 22.92528 | 113.93691 | 27829 ft | 449 kts | 332° |
| 2026-05-07 12:34 | 22.95378 | 113.92234 | 28226 ft | 451 kts | 332° |
| 2026-05-07 12:34 | 22.98224 | 113.90778 | 28579 ft | 453 kts | 333° |
| 2026-05-07 12:34 | 23.01107 | 113.89301 | 28916 ft | 455 kts | 332° |
| 2026-05-07 12:35 | 23.03974 | 113.87833 | 29236 ft | 457 kts | 332° |
| 2026-05-07 12:35 | 23.06913 | 113.86327 | 29541 ft | 459 kts | 332° |
| 2026-05-07 12:35 | 23.09831 | 113.84901 | 29831 ft | 462 kts | 335° |
| 2026-05-07 12:35 | 23.12856 | 113.83688 | 30104 ft | 465 kts | 337° |
| 2026-05-07 12:36 | 23.15909 | 113.82494 | 30369 ft | 466 kts | 337° |
| 2026-05-07 12:36 | 23.18970 | 113.81293 | 30605 ft | 468 kts | 337° |
| 2026-05-07 12:36 | 23.22038 | 113.80089 | 30882 ft | 468 kts | 337° |
| 2026-05-07 12:36 | 23.25085 | 113.78892 | 31225 ft | 466 kts | 337° |
| 2026-05-07 12:37 | 23.28158 | 113.77684 | 31586 ft | 465 kts | 337° |
| 2026-05-07 12:37 | 23.31208 | 113.76485 | 31966 ft | 462 kts | 337° |
| 2026-05-07 12:37 | 23.34235 | 113.75294 | 32328 ft | 460 kts | 337° |
| 2026-05-07 12:37 | 23.37230 | 113.74113 | 32662 ft | 459 kts | 336° |
| 2026-05-07 12:38 | 23.40210 | 113.72939 | 32999 ft | 457 kts | 336° |
| 2026-05-07 12:38 | 23.43217 | 113.71754 | 33396 ft | 454 kts | 336° |
| 2026-05-07 12:38 | 23.46151 | 113.70596 | 33760 ft | 452 kts | 336° |
| 2026-05-07 12:38 | 23.49116 | 113.69425 | 34116 ft | 449 kts | 336° |
| 2026-05-07 12:39 | 23.52037 | 113.68272 | 34456 ft | 447 kts | 336° |
| 2026-05-07 12:39 | 23.54985 | 113.67107 | 34785 ft | 445 kts | 336° |
| 2026-05-07 12:39 | 23.57863 | 113.65968 | 35047 ft | 444 kts | 336° |
| 2026-05-07 12:39 | 23.60802 | 113.64804 | 35067 ft | 449 kts | 336° |
| 2026-05-07 12:40 | 23.66697 | 113.62468 | 35071 ft | 456 kts | 336° |
| 2026-05-07 12:40 | 23.72706 | 113.60085 | 35076 ft | 462 kts | 336° |
| 2026-05-07 12:41 | 23.78808 | 113.57663 | 35077 ft | 466 kts | 336° |
| 2026-05-07 12:41 | 23.84912 | 113.55239 | 35085 ft | 468 kts | 336° |
| 2026-05-07 12:42 | 23.91027 | 113.52808 | 35094 ft | 468 kts | 336° |
| 2026-05-07 12:42 | 23.97143 | 113.50375 | 35099 ft | 467 kts | 336° |
| 2026-05-07 12:43 | 24.03273 | 113.47933 | 35093 ft | 467 kts | 336° |
| 2026-05-07 12:43 | 24.09392 | 113.45493 | 35076 ft | 467 kts | 336° |
| 2026-05-07 12:44 | 24.15520 | 113.43103 | 35062 ft | 469 kts | 339° |
| 2026-05-07 12:44 | 24.21973 | 113.41800 | 35053 ft | 476 kts | 352° |
| 2026-05-07 12:45 | 24.28627 | 113.41846 | 35062 ft | 479 kts | 357° |
| 2026-05-07 12:45 | 24.35326 | 113.42038 | 35083 ft | 479 kts | 357° |
| 2026-05-07 12:46 | 24.42022 | 113.42220 | 35102 ft | 480 kts | 357° |
| 2026-05-07 12:46 | 24.48719 | 113.42436 | 35121 ft | 480 kts | 357° |
| 2026-05-07 12:47 | 24.55407 | 113.42655 | 35120 ft | 480 kts | 357° |
| 2026-05-07 12:47 | 24.62064 | 113.42873 | 35103 ft | 479 kts | 357° |
| 2026-05-07 12:48 | 24.68749 | 113.43085 | 35086 ft | 479 kts | 357° |
| 2026-05-07 12:48 | 24.75398 | 113.43266 | 35071 ft | 479 kts | 356° |
| 2026-05-07 12:49 | 24.82096 | 113.43449 | 35073 ft | 478 kts | 356° |
| 2026-05-07 12:49 | 24.88745 | 113.43630 | 35077 ft | 478 kts | 357° |
| 2026-05-07 12:50 | 24.95385 | 113.43811 | 35080 ft | 478 kts | 356° |
| 2026-05-07 12:50 | 25.02070 | 113.43994 | 35083 ft | 477 kts | 357° |
| 2026-05-07 12:51 | 25.08686 | 113.44175 | 35086 ft | 477 kts | 356° |
| 2026-05-07 12:51 | 25.15345 | 113.44358 | 35092 ft | 477 kts | 356° |
| 2026-05-07 12:52 | 25.22001 | 113.44540 | 35098 ft | 477 kts | 356° |
| 2026-05-07 12:52 | 25.28635 | 113.44723 | 35095 ft | 477 kts | 356° |
| 2026-05-07 12:53 | 25.35284 | 113.44906 | 35105 ft | 476 kts | 356° |
| 2026-05-07 12:53 | 25.41474 | 113.45076 | 35105 ft | 476 kts | 356° |
| 2026-05-07 12:54 | 25.48118 | 113.45262 | 35108 ft | 476 kts | 356° |
| 2026-05-07 12:54 | 25.54859 | 113.45454 | 35098 ft | 476 kts | 356° |
| 2026-05-07 12:55 | 25.60925 | 113.45629 | 35113 ft | 476 kts | 356° |
| 2026-05-07 12:55 | 25.67531 | 113.45818 | 35115 ft | 475 kts | 356° |
| 2026-05-07 12:56 | 25.74197 | 113.46008 | 35093 ft | 476 kts | 356° |
| 2026-05-07 12:56 | 25.80790 | 113.46196 | 35087 ft | 476 kts | 356° |
| 2026-05-07 12:57 | 25.87430 | 113.46346 | 35086 ft | 474 kts | 354° |
| 2026-05-07 12:57 | 25.94013 | 113.46106 | 35069 ft | 472 kts | 353° |
| 2026-05-07 12:58 | 26.00581 | 113.45853 | 35046 ft | 472 kts | 353° |
| 2026-05-07 12:58 | 26.07157 | 113.45599 | 35044 ft | 472 kts | 353° |
| 2026-05-07 12:59 | 26.13717 | 113.45347 | 35045 ft | 472 kts | 353° |
| 2026-05-07 12:59 | 26.20295 | 113.45094 | 35053 ft | 472 kts | 353° |
| 2026-05-07 13:00 | 26.26893 | 113.44840 | 35057 ft | 473 kts | 353° |
| 2026-05-07 13:00 | 26.33465 | 113.44588 | 35040 ft | 473 kts | 353° |
| 2026-05-07 13:01 | 26.40064 | 113.44334 | 35041 ft | 473 kts | 353° |
| 2026-05-07 13:01 | 26.46638 | 113.44080 | 35032 ft | 473 kts | 353° |
| 2026-05-07 13:02 | 26.53229 | 113.43827 | 35015 ft | 472 kts | 353° |
| 2026-05-07 13:02 | 26.59788 | 113.43576 | 35017 ft | 473 kts | 353° |
| 2026-05-07 13:03 | 26.66370 | 113.43323 | 35009 ft | 473 kts | 353° |
| 2026-05-07 13:03 | 26.72978 | 113.43070 | 35001 ft | 474 kts | 353° |
| 2026-05-07 13:04 | 26.79542 | 113.42818 | 35001 ft | 473 kts | 353° |
| 2026-05-07 13:04 | 26.86129 | 113.42564 | 35013 ft | 473 kts | 353° |
| 2026-05-07 13:05 | 26.92728 | 113.42310 | 35013 ft | 473 kts | 353° |
| 2026-05-07 13:05 | 26.99295 | 113.42057 | 35014 ft | 473 kts | 353° |
| 2026-05-07 13:06 | 27.05891 | 113.41802 | 35001 ft | 473 kts | 353° |
| 2026-05-07 13:06 | 27.12482 | 113.41547 | 34996 ft | 474 kts | 353° |
| 2026-05-07 13:07 | 27.19085 | 113.41293 | 34990 ft | 474 kts | 353° |
| 2026-05-07 13:07 | 27.25641 | 113.41039 | 34983 ft | 474 kts | 353° |
| 2026-05-07 13:08 | 27.32253 | 113.40788 | 34987 ft | 474 kts | 354° |
| 2026-05-07 13:08 | 27.38888 | 113.40869 | 34979 ft | 476 kts | 356° |
| 2026-05-07 13:09 | 27.45496 | 113.41002 | 34971 ft | 477 kts | 356° |
| 2026-05-07 13:09 | 27.52171 | 113.41135 | 34969 ft | 477 kts | 356° |
| 2026-05-07 13:10 | 27.58808 | 113.41267 | 34973 ft | 478 kts | 356° |
| 2026-05-07 13:10 | 27.65455 | 113.41417 | 34969 ft | 479 kts | 358° |
| 2026-05-07 13:11 | 27.72125 | 113.41979 | 34968 ft | 481 kts | 359° |
| 2026-05-07 13:11 | 27.78785 | 113.42575 | 34976 ft | 480 kts | 359° |
| 2026-05-07 13:12 | 27.85463 | 113.43172 | 34975 ft | 481 kts | 359° |
| 2026-05-07 13:12 | 27.92133 | 113.43765 | 34983 ft | 481 kts | 359° |
| 2026-05-07 13:13 | 27.98819 | 113.44352 | 34990 ft | 481 kts | 359° |
| 2026-05-07 13:13 | 28.05518 | 113.44939 | 34988 ft | 481 kts | 359° |
| 2026-05-07 13:14 | 28.12195 | 113.45483 | 34980 ft | 481 kts | 359° |
| 2026-05-07 13:14 | 28.18850 | 113.45953 | 34970 ft | 481 kts | 359° |
| 2026-05-07 13:15 | 28.25562 | 113.46433 | 34954 ft | 482 kts | 359° |
| 2026-05-07 13:15 | 28.32268 | 113.46915 | 34975 ft | 481 kts | 359° |
| 2026-05-07 13:16 | 28.38956 | 113.47396 | 34974 ft | 482 kts | 359° |
| 2026-05-07 13:16 | 28.45621 | 113.47872 | 34971 ft | 482 kts | 359° |
| 2026-05-07 13:17 | 28.52361 | 113.48353 | 34971 ft | 482 kts | 359° |
| 2026-05-07 13:17 | 28.59041 | 113.48830 | 34969 ft | 482 kts | 359° |
| 2026-05-07 13:18 | 28.65742 | 113.49310 | 34967 ft | 483 kts | 359° |
| 2026-05-07 13:18 | 28.72451 | 113.49791 | 34969 ft | 483 kts | 359° |
| 2026-05-07 13:19 | 28.79171 | 113.50273 | 34963 ft | 483 kts | 359° |
| 2026-05-07 13:19 | 28.85860 | 113.50754 | 34969 ft | 483 kts | 359° |
| 2026-05-07 13:20 | 28.92584 | 113.51238 | 34967 ft | 483 kts | 359° |
| 2026-05-07 13:20 | 28.99280 | 113.51720 | 34978 ft | 483 kts | 359° |
| 2026-05-07 13:21 | 29.05990 | 113.52204 | 34977 ft | 484 kts | 359° |
| 2026-05-07 13:21 | 29.12717 | 113.52690 | 34976 ft | 484 kts | 359° |
| 2026-05-07 13:22 | 29.19415 | 113.53173 | 34983 ft | 484 kts | 359° |
| 2026-05-07 13:22 | 29.26167 | 113.53661 | 34989 ft | 483 kts | 359° |
| 2026-05-07 13:23 | 29.32857 | 113.54200 | 34978 ft | 484 kts | 359° |
| 2026-05-07 13:23 | 29.39620 | 113.54787 | 34961 ft | 485 kts | 359° |
| 2026-05-07 13:24 | 29.46348 | 113.55371 | 34954 ft | 484 kts | 359° |
| 2026-05-07 13:24 | 29.53029 | 113.55951 | 34941 ft | 484 kts | 359° |
| 2026-05-07 13:25 | 29.59772 | 113.56537 | 34937 ft | 485 kts | 359° |
| 2026-05-07 13:25 | 29.66490 | 113.57122 | 34938 ft | 485 kts | 359° |
| 2026-05-07 13:26 | 29.73259 | 113.57711 | 34928 ft | 485 kts | 359° |
| 2026-05-07 13:26 | 29.79953 | 113.58295 | 34926 ft | 485 kts | 359° |
| 2026-05-07 13:27 | 29.86712 | 113.58885 | 34920 ft | 485 kts | 359° |
| 2026-05-07 13:27 | 29.93425 | 113.59800 | 34913 ft | 491 kts | 7° |
| 2026-05-07 13:28 | 29.99956 | 113.62262 | 34905 ft | 501 kts | 18° |
| 2026-05-07 13:28 | 30.06371 | 113.65466 | 34907 ft | 501 kts | 18° |
| 2026-05-07 13:29 | 30.12758 | 113.68655 | 34908 ft | 501 kts | 18° |
| 2026-05-07 13:29 | 30.19140 | 113.71845 | 34905 ft | 501 kts | 18° |
| 2026-05-07 13:30 | 30.25540 | 113.75049 | 34901 ft | 501 kts | 18° |
| 2026-05-07 13:30 | 30.31940 | 113.78257 | 34903 ft | 501 kts | 18° |
| 2026-05-07 13:31 | 30.38341 | 113.81470 | 34905 ft | 501 kts | 18° |
| 2026-05-07 13:31 | 30.44756 | 113.84694 | 34904 ft | 501 kts | 18° |
| 2026-05-07 13:32 | 30.51149 | 113.87911 | 34906 ft | 502 kts | 18° |
| 2026-05-07 13:32 | 30.57565 | 113.91145 | 34905 ft | 502 kts | 18° |
| 2026-05-07 13:33 | 30.63954 | 113.94370 | 34912 ft | 502 kts | 18° |
| 2026-05-07 13:33 | 30.70394 | 113.97636 | 34912 ft | 502 kts | 20° |
| 2026-05-07 13:34 | 30.79896 | 114.02763 | 34911 ft | 503 kts | 20° |
| 2026-05-07 13:35 | 30.86222 | 114.06190 | 34910 ft | 503 kts | 20° |
| 2026-05-07 13:35 | 30.92566 | 114.09630 | 34914 ft | 503 kts | 20° |
| 2026-05-07 13:36 | 30.98894 | 114.13066 | 34912 ft | 503 kts | 20° |
| 2026-05-07 13:36 | 31.05251 | 114.16522 | 34914 ft | 504 kts | 20° |
| 2026-05-07 13:37 | 31.11605 | 114.19976 | 34900 ft | 504 kts | 20° |
| 2026-05-07 13:37 | 31.17964 | 114.23440 | 34904 ft | 504 kts | 20° |
| 2026-05-07 13:38 | 31.24328 | 114.26910 | 34908 ft | 504 kts | 20° |
| 2026-05-07 13:38 | 31.30672 | 114.30347 | 34919 ft | 503 kts | 19° |
| 2026-05-07 13:39 | 31.37282 | 114.32727 | 34926 ft | 494 kts | 6° |
| 2026-05-07 13:39 | 31.44072 | 114.33428 | 34919 ft | 488 kts | 356° |
| 2026-05-07 13:40 | 31.50871 | 114.33624 | 34914 ft | 488 kts | 356° |
| 2026-05-07 13:40 | 31.57660 | 114.33821 | 34915 ft | 488 kts | 356° |
| 2026-05-07 13:41 | 31.64446 | 114.34019 | 34912 ft | 488 kts | 356° |
| 2026-05-07 13:41 | 31.71276 | 114.34218 | 34915 ft | 488 kts | 356° |
| 2026-05-07 13:42 | 31.78056 | 114.34423 | 34920 ft | 489 kts | 356° |
| 2026-05-07 13:42 | 31.84866 | 114.34630 | 34917 ft | 489 kts | 356° |
| 2026-05-07 13:43 | 31.91682 | 114.34835 | 34911 ft | 489 kts | 357° |
| 2026-05-07 13:43 | 31.98466 | 114.35040 | 34907 ft | 490 kts | 356° |
| 2026-05-07 13:44 | 32.05277 | 114.35246 | 34904 ft | 489 kts | 356° |
| 2026-05-07 13:44 | 32.12107 | 114.35453 | 34901 ft | 489 kts | 356° |
| 2026-05-07 13:45 | 32.18933 | 114.35660 | 34899 ft | 489 kts | 356° |
| 2026-05-07 13:45 | 32.25740 | 114.35883 | 34894 ft | 491 kts | 358° |
| 2026-05-07 13:46 | 32.32570 | 114.36473 | 34892 ft | 495 kts | 360° |
| 2026-05-07 13:46 | 32.39452 | 114.37104 | 34894 ft | 496 kts | 359° |
| 2026-05-07 13:47 | 32.46334 | 114.37735 | 34890 ft | 495 kts | 359° |
| 2026-05-07 13:47 | 32.53184 | 114.38364 | 34889 ft | 495 kts | 360° |
| 2026-05-07 13:48 | 32.60078 | 114.39018 | 34892 ft | 495 kts | 0° |
| 2026-05-07 13:48 | 32.66943 | 114.39626 | 34891 ft | 495 kts | 359° |
| 2026-05-07 13:49 | 32.73809 | 114.40268 | 34886 ft | 494 kts | 359° |
| 2026-05-07 13:49 | 32.80624 | 114.40906 | 34883 ft | 494 kts | 359° |
| 2026-05-07 13:50 | 32.87512 | 114.41550 | 34885 ft | 494 kts | 359° |
| 2026-05-07 13:50 | 32.94331 | 114.42189 | 34871 ft | 493 kts | 359° |
| 2026-05-07 13:51 | 33.01168 | 114.42830 | 34871 ft | 493 kts | 359° |
| 2026-05-07 13:51 | 33.08019 | 114.43473 | 34868 ft | 493 kts | 359° |
| 2026-05-07 13:52 | 33.14820 | 114.44113 | 34865 ft | 492 kts | 359° |
| 2026-05-07 13:52 | 33.21670 | 114.44758 | 34861 ft | 492 kts | 359° |
| 2026-05-07 13:53 | 33.28489 | 114.45400 | 34851 ft | 492 kts | 359° |
| 2026-05-07 13:53 | 33.35265 | 114.46038 | 34853 ft | 491 kts | 359° |
| 2026-05-07 13:54 | 33.42075 | 114.46680 | 34850 ft | 491 kts | 359° |
| 2026-05-07 13:54 | 33.48896 | 114.47324 | 34852 ft | 491 kts | 359° |
| 2026-05-07 13:55 | 33.55689 | 114.47965 | 34849 ft | 491 kts | 359° |
| 2026-05-07 13:55 | 33.62495 | 114.48597 | 34848 ft | 490 kts | 358° |
| 2026-05-07 13:56 | 33.69296 | 114.49122 | 34844 ft | 490 kts | 358° |
| 2026-05-07 13:56 | 33.76108 | 114.49789 | 34845 ft | 491 kts | 359° |
| 2026-05-07 13:57 | 33.82928 | 114.50520 | 34850 ft | 490 kts | 359° |
| 2026-05-07 13:57 | 33.89702 | 114.51162 | 34851 ft | 489 kts | 358° |
| 2026-05-07 13:58 | 33.96504 | 114.51804 | 34854 ft | 489 kts | 358° |
| 2026-05-07 13:58 | 34.03262 | 114.52444 | 34849 ft | 490 kts | 358° |
| 2026-05-07 13:59 | 34.06344 | 114.52735 | 34841 ft | 489 kts | 358° |